sensor_id;sensor_type;location;lat;lon;timestamp;P1;durP1;ratioP1;P2;durP2;ratioP2
14125;SDS011;7141;49.484;11.242;2023-02-02T00:01:45;8.60;;;1.90;;
14125;SDS011;7141;49.484;11.242;2023-02-02T00:04:15;8.20;;;2.70;;
14125;SDS011;7141;49.484;11.242;2023-02-02T00:06:42;10.40;;;2.73;;
14125;SDS011;7141;49.484;11.242;2023-02-02T00:09:09;20.30;;;2.97;;
14125;SDS011;7141;49.484;11.242;2023-02-02T00:11:36;8.80;;;2.50;;
14125;SDS011;7141;49.484;11.242;2023-02-02T00:14:01;11.27;;;3.10;;
14125;SDS011;7141;49.484;11.242;2023-02-02T00:18:54;11.27;;;2.17;;
14125;SDS011;7141;49.484;11.242;2023-02-02T00:21:21;12.97;;;2.60;;
14125;SDS011;7141;49.484;11.242;2023-02-02T00:23:47;7.67;;;2.43;;
14125;SDS011;7141;49.484;11.242;2023-02-02T00:26:13;8.13;;;2.50;;
14125;SDS011;7141;49.484;11.242;2023-02-02T00:28:39;10.30;;;2.00;;
14125;SDS011;7141;49.484;11.242;2023-02-02T00:31:05;8.30;;;2.03;;
14125;SDS011;7141;49.484;11.242;2023-02-02T00:33:31;9.10;;;2.23;;
14125;SDS011;7141;49.484;11.242;2023-02-02T00:35:57;7.00;;;1.93;;
14125;SDS011;7141;49.484;11.242;2023-02-02T00:38:23;5.80;;;1.30;;
14125;SDS011;7141;49.484;11.242;2023-02-02T00:40:49;2.13;;;1.10;;
14125;SDS011;7141;49.484;11.242;2023-02-02T00:43:15;3.47;;;1.40;;
14125;SDS011;7141;49.484;11.242;2023-02-02T00:45:41;3.13;;;1.13;;
14125;SDS011;7141;49.484;11.242;2023-02-02T00:48:07;1.70;;;0.90;;
14125;SDS011;7141;49.484;11.242;2023-02-02T00:50:35;2.03;;;1.13;;
14125;SDS011;7141;49.484;11.242;2023-02-02T00:53:01;1.63;;;0.80;;
14125;SDS011;7141;49.484;11.242;2023-02-02T00:55:27;0.70;;;0.70;;
14125;SDS011;7141;49.484;11.242;2023-02-02T00:57:53;0.83;;;0.80;;
14125;SDS011;7141;49.484;11.242;2023-02-02T01:00:21;0.43;;;0.40;;
14125;SDS011;7141;49.484;11.242;2023-02-02T01:02:51;0.70;;;0.40;;
14125;SDS011;7141;49.484;11.242;2023-02-02T01:05:17;0.40;;;0.40;;
14125;SDS011;7141;49.484;11.242;2023-02-02T01:07:43;0.30;;;0.30;;
14125;SDS011;7141;49.484;11.242;2023-02-02T01:10:11;0.30;;;0.30;;
14125;SDS011;7141;49.484;11.242;2023-02-02T01:12:38;0.40;;;0.40;;
14125;SDS011;7141;49.484;11.242;2023-02-02T01:15:04;0.43;;;0.43;;
14125;SDS011;7141;49.484;11.242;2023-02-02T01:17:30;0.73;;;0.50;;
14125;SDS011;7141;49.484;11.242;2023-02-02T01:19:56;0.40;;;0.40;;
14125;SDS011;7141;49.484;11.242;2023-02-02T01:22:22;0.40;;;0.40;;
14125;SDS011;7141;49.484;11.242;2023-02-02T01:24:48;0.33;;;0.33;;
14125;SDS011;7141;49.484;11.242;2023-02-02T01:27:14;0.40;;;0.40;;
14125;SDS011;7141;49.484;11.242;2023-02-02T01:29:40;0.40;;;0.40;;
14125;SDS011;7141;49.484;11.242;2023-02-02T01:32:06;0.63;;;0.43;;
14125;SDS011;7141;49.484;11.242;2023-02-02T01:34:32;0.30;;;0.30;;
14125;SDS011;7141;49.484;11.242;2023-02-02T01:36:58;0.30;;;0.30;;
14125;SDS011;7141;49.484;11.242;2023-02-02T01:39:24;0.33;;;0.33;;
14125;SDS011;7141;49.484;11.242;2023-02-02T01:41:50;0.40;;;0.40;;
14125;SDS011;7141;49.484;11.242;2023-02-02T01:47:01;0.30;;;0.30;;
14125;SDS011;7141;49.484;11.242;2023-02-02T01:49:27;0.20;;;0.20;;
14125;SDS011;7141;49.484;11.242;2023-02-02T01:51:54;0.50;;;0.50;;
14125;SDS011;7141;49.484;11.242;2023-02-02T01:54:25;0.47;;;0.47;;
14125;SDS011;7141;49.484;11.242;2023-02-02T01:56:57;1.83;;;0.40;;
14125;SDS011;7141;49.484;11.242;2023-02-02T01:59:24;0.33;;;0.33;;
14125;SDS011;7141;49.484;11.242;2023-02-02T02:01:52;0.30;;;0.30;;
14125;SDS011;7141;49.484;11.242;2023-02-02T02:04:18;0.30;;;0.30;;
14125;SDS011;7141;49.484;11.242;2023-02-02T02:06:44;0.77;;;0.50;;
14125;SDS011;7141;49.484;11.242;2023-02-02T02:09:12;0.40;;;0.40;;
14125;SDS011;7141;49.484;11.242;2023-02-02T02:11:38;0.30;;;0.30;;
14125;SDS011;7141;49.484;11.242;2023-02-02T02:14:05;0.20;;;0.20;;
14125;SDS011;7141;49.484;11.242;2023-02-02T02:16:54;0.37;;;0.37;;
14125;SDS011;7141;49.484;11.242;2023-02-02T02:19:30;0.40;;;0.40;;
14125;SDS011;7141;49.484;11.242;2023-02-02T02:22:11;0.27;;;0.27;;
14125;SDS011;7141;49.484;11.242;2023-02-02T02:32:58;0.30;;;0.30;;
14125;SDS011;7141;49.484;11.242;2023-02-02T02:35:31;0.40;;;0.40;;
14125;SDS011;7141;49.484;11.242;2023-02-02T02:43:05;0.20;;;0.20;;
14125;SDS011;7141;49.484;11.242;2023-02-02T02:45:32;0.27;;;0.27;;
14125;SDS011;7141;49.484;11.242;2023-02-02T02:47:59;0.30;;;0.30;;
14125;SDS011;7141;49.484;11.242;2023-02-02T02:50:27;0.30;;;0.30;;
14125;SDS011;7141;49.484;11.242;2023-02-02T02:53:01;0.30;;;0.30;;
14125;SDS011;7141;49.484;11.242;2023-02-02T02:55:29;0.27;;;0.27;;
14125;SDS011;7141;49.484;11.242;2023-02-02T02:58:01;0.30;;;0.30;;
14125;SDS011;7141;49.484;11.242;2023-02-02T03:00:34;0.33;;;0.33;;
14125;SDS011;7141;49.484;11.242;2023-02-02T03:03:04;0.30;;;0.30;;
14125;SDS011;7141;49.484;11.242;2023-02-02T03:08:13;0.40;;;0.40;;
14125;SDS011;7141;49.484;11.242;2023-02-02T03:10:42;0.40;;;0.40;;
14125;SDS011;7141;49.484;11.242;2023-02-02T03:13:10;0.50;;;0.50;;
14125;SDS011;7141;49.484;11.242;2023-02-02T03:15:40;0.43;;;0.37;;
14125;SDS011;7141;49.484;11.242;2023-02-02T03:18:06;0.40;;;0.40;;
14125;SDS011;7141;49.484;11.242;2023-02-02T03:20:32;0.50;;;0.50;;
14125;SDS011;7141;49.484;11.242;2023-02-02T03:22:58;0.40;;;0.40;;
14125;SDS011;7141;49.484;11.242;2023-02-02T03:25:24;0.40;;;0.37;;
14125;SDS011;7141;49.484;11.242;2023-02-02T03:27:50;0.50;;;0.50;;
14125;SDS011;7141;49.484;11.242;2023-02-02T03:30:17;0.30;;;0.30;;
14125;SDS011;7141;49.484;11.242;2023-02-02T03:32:43;0.47;;;0.47;;
14125;SDS011;7141;49.484;11.242;2023-02-02T03:35:10;0.30;;;0.30;;
14125;SDS011;7141;49.484;11.242;2023-02-02T03:37:36;0.33;;;0.33;;
14125;SDS011;7141;49.484;11.242;2023-02-02T03:40:02;0.30;;;0.30;;
14125;SDS011;7141;49.484;11.242;2023-02-02T03:42:28;0.47;;;0.47;;
14125;SDS011;7141;49.484;11.242;2023-02-02T03:44:54;0.43;;;0.43;;
14125;SDS011;7141;49.484;11.242;2023-02-02T03:47:20;0.53;;;0.53;;
14125;SDS011;7141;49.484;11.242;2023-02-02T03:49:46;0.60;;;0.43;;
14125;SDS011;7141;49.484;11.242;2023-02-02T03:52:12;1.40;;;0.53;;
14125;SDS011;7141;49.484;11.242;2023-02-02T03:54:38;0.53;;;0.53;;
14125;SDS011;7141;49.484;11.242;2023-02-02T03:57:04;0.40;;;0.40;;
14125;SDS011;7141;49.484;11.242;2023-02-02T03:59:30;0.40;;;0.40;;
14125;SDS011;7141;49.484;11.242;2023-02-02T04:01:56;0.57;;;0.40;;
14125;SDS011;7141;49.484;11.242;2023-02-02T04:04:22;0.50;;;0.50;;
14125;SDS011;7141;49.484;11.242;2023-02-02T04:06:48;1.43;;;0.90;;
14125;SDS011;7141;49.484;11.242;2023-02-02T04:09:14;0.97;;;0.80;;
14125;SDS011;7141;49.484;11.242;2023-02-02T04:11:40;2.60;;;1.20;;
14125;SDS011;7141;49.484;11.242;2023-02-02T04:14:05;1.40;;;1.10;;
14125;SDS011;7141;49.484;11.242;2023-02-02T04:16:31;1.30;;;1.00;;
14125;SDS011;7141;49.484;11.242;2023-02-02T04:19:01;2.40;;;1.00;;
14125;SDS011;7141;49.484;11.242;2023-02-02T04:21:27;1.00;;;0.83;;
14125;SDS011;7141;49.484;11.242;2023-02-02T04:23:53;1.77;;;1.30;;
14125;SDS011;7141;49.484;11.242;2023-02-02T04:26:19;1.97;;;1.20;;
14125;SDS011;7141;49.484;11.242;2023-02-02T04:28:45;1.30;;;1.20;;
14125;SDS011;7141;49.484;11.242;2023-02-02T04:31:10;1.63;;;1.30;;
14125;SDS011;7141;49.484;11.242;2023-02-02T04:33:36;3.00;;;1.13;;
14125;SDS011;7141;49.484;11.242;2023-02-02T04:36:03;2.43;;;1.40;;
14125;SDS011;7141;49.484;11.242;2023-02-02T04:38:29;3.40;;;1.53;;
14125;SDS011;7141;49.484;11.242;2023-02-02T04:40:55;3.37;;;1.70;;
14125;SDS011;7141;49.484;11.242;2023-02-02T04:43:21;2.10;;;1.40;;
14125;SDS011;7141;49.484;11.242;2023-02-02T04:45:46;3.13;;;1.60;;
14125;SDS011;7141;49.484;11.242;2023-02-02T04:48:14;2.30;;;1.93;;
14125;SDS011;7141;49.484;11.242;2023-02-02T04:50:40;3.00;;;1.90;;
14125;SDS011;7141;49.484;11.242;2023-02-02T04:53:06;6.23;;;2.90;;
14125;SDS011;7141;49.484;11.242;2023-02-02T04:55:34;3.40;;;2.30;;
14125;SDS011;7141;49.484;11.242;2023-02-02T04:58:00;4.47;;;2.50;;
14125;SDS011;7141;49.484;11.242;2023-02-02T05:00:26;4.50;;;2.60;;
14125;SDS011;7141;49.484;11.242;2023-02-02T05:02:52;3.67;;;2.10;;
14125;SDS011;7141;49.484;11.242;2023-02-02T05:05:18;2.57;;;2.00;;
14125;SDS011;7141;49.484;11.242;2023-02-02T05:07:44;2.40;;;1.40;;
14125;SDS011;7141;49.484;11.242;2023-02-02T05:10:10;0.97;;;0.90;;
14125;SDS011;7141;49.484;11.242;2023-02-02T05:12:36;1.20;;;1.07;;
14125;SDS011;7141;49.484;11.242;2023-02-02T05:15:03;0.80;;;0.80;;
14125;SDS011;7141;49.484;11.242;2023-02-02T05:17:29;0.60;;;0.50;;
14125;SDS011;7141;49.484;11.242;2023-02-02T05:19:55;1.10;;;1.00;;
14125;SDS011;7141;49.484;11.242;2023-02-02T05:22:21;0.73;;;0.73;;
14125;SDS011;7141;49.484;11.242;2023-02-02T05:24:47;0.73;;;0.70;;
14125;SDS011;7141;49.484;11.242;2023-02-02T05:27:13;0.67;;;0.60;;
14125;SDS011;7141;49.484;11.242;2023-02-02T05:29:39;0.50;;;0.50;;
14125;SDS011;7141;49.484;11.242;2023-02-02T05:32:05;1.60;;;0.50;;
14125;SDS011;7141;49.484;11.242;2023-02-02T05:34:31;0.70;;;0.70;;
14125;SDS011;7141;49.484;11.242;2023-02-02T05:36:57;0.80;;;0.77;;
14125;SDS011;7141;49.484;11.242;2023-02-02T05:39:23;1.67;;;0.83;;
14125;SDS011;7141;49.484;11.242;2023-02-02T05:41:49;0.60;;;0.60;;
14125;SDS011;7141;49.484;11.242;2023-02-02T05:44:15;0.70;;;0.70;;
14125;SDS011;7141;49.484;11.242;2023-02-02T05:46:41;0.80;;;0.80;;
14125;SDS011;7141;49.484;11.242;2023-02-02T05:49:10;1.20;;;1.10;;
14125;SDS011;7141;49.484;11.242;2023-02-02T05:51:38;2.93;;;2.13;;
14125;SDS011;7141;49.484;11.242;2023-02-02T05:54:05;0.90;;;0.90;;
14125;SDS011;7141;49.484;11.242;2023-02-02T05:56:31;1.10;;;1.00;;
14125;SDS011;7141;49.484;11.242;2023-02-02T05:58:57;1.80;;;1.43;;
14125;SDS011;7141;49.484;11.242;2023-02-02T06:01:24;2.53;;;1.90;;
14125;SDS011;7141;49.484;11.242;2023-02-02T06:03:50;2.53;;;1.20;;
14125;SDS011;7141;49.484;11.242;2023-02-02T06:06:16;2.27;;;1.80;;
14125;SDS011;7141;49.484;11.242;2023-02-02T06:08:42;1.10;;;1.00;;
14125;SDS011;7141;49.484;11.242;2023-02-02T06:11:11;1.60;;;1.17;;
14125;SDS011;7141;49.484;11.242;2023-02-02T06:13:37;1.10;;;1.00;;
14125;SDS011;7141;49.484;11.242;2023-02-02T06:16:03;2.00;;;1.20;;
14125;SDS011;7141;49.484;11.242;2023-02-02T06:18:29;1.03;;;0.90;;
14125;SDS011;7141;49.484;11.242;2023-02-02T06:20:58;1.10;;;1.00;;
14125;SDS011;7141;49.484;11.242;2023-02-02T06:23:25;1.87;;;1.03;;
14125;SDS011;7141;49.484;11.242;2023-02-02T06:25:51;0.80;;;0.80;;
14125;SDS011;7141;49.484;11.242;2023-02-02T06:28:17;3.43;;;1.00;;
14125;SDS011;7141;49.484;11.242;2023-02-02T06:30:43;0.90;;;0.90;;
14125;SDS011;7141;49.484;11.242;2023-02-02T06:33:09;1.00;;;0.80;;
14125;SDS011;7141;49.484;11.242;2023-02-02T06:35:35;0.77;;;0.77;;
14125;SDS011;7141;49.484;11.242;2023-02-02T06:38:01;1.10;;;1.00;;
14125;SDS011;7141;49.484;11.242;2023-02-02T06:40:27;1.20;;;0.90;;
14125;SDS011;7141;49.484;11.242;2023-02-02T06:43:00;1.03;;;0.97;;
14125;SDS011;7141;49.484;11.242;2023-02-02T06:45:26;0.80;;;0.80;;
14125;SDS011;7141;49.484;11.242;2023-02-02T06:47:53;1.30;;;1.17;;
14125;SDS011;7141;49.484;11.242;2023-02-02T06:50:19;1.10;;;1.00;;
14125;SDS011;7141;49.484;11.242;2023-02-02T06:52:48;1.67;;;1.30;;
14125;SDS011;7141;49.484;11.242;2023-02-02T06:55:15;1.27;;;1.17;;
14125;SDS011;7141;49.484;11.242;2023-02-02T06:57:41;2.37;;;1.40;;
14125;SDS011;7141;49.484;11.242;2023-02-02T07:00:07;3.40;;;2.03;;
14125;SDS011;7141;49.484;11.242;2023-02-02T07:02:33;5.47;;;4.10;;
14125;SDS011;7141;49.484;11.242;2023-02-02T07:04:59;7.17;;;4.70;;
14125;SDS011;7141;49.484;11.242;2023-02-02T07:07:25;6.90;;;3.83;;
14125;SDS011;7141;49.484;11.242;2023-02-02T07:09:51;2.37;;;1.40;;
14125;SDS011;7141;49.484;11.242;2023-02-02T07:12:17;2.83;;;2.00;;
14125;SDS011;7141;49.484;11.242;2023-02-02T07:14:44;2.67;;;1.63;;
14125;SDS011;7141;49.484;11.242;2023-02-02T07:17:10;3.23;;;1.57;;
14125;SDS011;7141;49.484;11.242;2023-02-02T07:19:36;3.40;;;1.80;;
14125;SDS011;7141;49.484;11.242;2023-02-02T07:22:02;1.87;;;1.60;;
14125;SDS011;7141;49.484;11.242;2023-02-02T07:24:28;4.40;;;1.87;;
14125;SDS011;7141;49.484;11.242;2023-02-02T07:26:54;1.90;;;1.30;;
14125;SDS011;7141;49.484;11.242;2023-02-02T07:29:21;2.47;;;1.50;;
14125;SDS011;7141;49.484;11.242;2023-02-02T07:31:47;2.23;;;1.40;;
14125;SDS011;7141;49.484;11.242;2023-02-02T07:34:13;4.77;;;1.47;;
14125;SDS011;7141;49.484;11.242;2023-02-02T07:36:39;1.37;;;1.10;;
14125;SDS011;7141;49.484;11.242;2023-02-02T07:39:05;2.90;;;1.47;;
14125;SDS011;7141;49.484;11.242;2023-02-02T07:41:35;1.23;;;1.03;;
14125;SDS011;7141;49.484;11.242;2023-02-02T07:44:01;1.93;;;0.83;;
14125;SDS011;7141;49.484;11.242;2023-02-02T07:46:27;2.83;;;1.10;;
14125;SDS011;7141;49.484;11.242;2023-02-02T07:48:53;2.10;;;1.03;;
14125;SDS011;7141;49.484;11.242;2023-02-02T07:51:20;0.90;;;0.90;;
14125;SDS011;7141;49.484;11.242;2023-02-02T07:53:47;2.20;;;1.03;;
14125;SDS011;7141;49.484;11.242;2023-02-02T07:56:14;1.27;;;1.00;;
14125;SDS011;7141;49.484;11.242;2023-02-02T07:58:40;2.50;;;1.30;;
14125;SDS011;7141;49.484;11.242;2023-02-02T08:01:07;2.27;;;1.53;;
14125;SDS011;7141;49.484;11.242;2023-02-02T08:03:33;1.77;;;1.17;;
14125;SDS011;7141;49.484;11.242;2023-02-02T08:06:00;1.43;;;1.23;;
14125;SDS011;7141;49.484;11.242;2023-02-02T08:08:26;1.40;;;1.30;;
14125;SDS011;7141;49.484;11.242;2023-02-02T08:10:52;1.33;;;1.23;;
14125;SDS011;7141;49.484;11.242;2023-02-02T08:13:19;1.90;;;1.70;;
14125;SDS011;7141;49.484;11.242;2023-02-02T08:15:45;2.70;;;1.87;;
14125;SDS011;7141;49.484;11.242;2023-02-02T08:18:11;2.57;;;1.63;;
14125;SDS011;7141;49.484;11.242;2023-02-02T08:20:37;2.37;;;1.80;;
14125;SDS011;7141;49.484;11.242;2023-02-02T08:23:03;3.70;;;1.70;;
14125;SDS011;7141;49.484;11.242;2023-02-02T08:25:29;2.63;;;1.37;;
14125;SDS011;7141;49.484;11.242;2023-02-02T08:27:55;1.50;;;1.40;;
14125;SDS011;7141;49.484;11.242;2023-02-02T08:30:26;1.87;;;1.50;;
14125;SDS011;7141;49.484;11.242;2023-02-02T08:32:52;1.70;;;1.50;;
14125;SDS011;7141;49.484;11.242;2023-02-02T08:35:18;3.20;;;2.30;;
14125;SDS011;7141;49.484;11.242;2023-02-02T08:37:48;8.50;;;4.10;;
14125;SDS011;7141;49.484;11.242;2023-02-02T08:40:14;5.63;;;3.83;;
14125;SDS011;7141;49.484;11.242;2023-02-02T08:42:40;22.80;;;11.07;;
14125;SDS011;7141;49.484;11.242;2023-02-02T08:45:07;40.40;;;16.77;;
14125;SDS011;7141;49.484;11.242;2023-02-02T08:47:33;63.77;;;22.43;;
14125;SDS011;7141;49.484;11.242;2023-02-02T08:49:59;75.73;;;26.60;;
14125;SDS011;7141;49.484;11.242;2023-02-02T08:52:25;61.37;;;21.83;;
14125;SDS011;7141;49.484;11.242;2023-02-02T08:54:51;46.80;;;18.23;;
14125;SDS011;7141;49.484;11.242;2023-02-02T08:57:17;23.53;;;9.50;;
14125;SDS011;7141;49.484;11.242;2023-02-02T08:59:43;15.37;;;8.67;;
14125;SDS011;7141;49.484;11.242;2023-02-02T09:02:10;12.80;;;6.40;;
14125;SDS011;7141;49.484;11.242;2023-02-02T09:04:37;18.17;;;8.47;;
14125;SDS011;7141;49.484;11.242;2023-02-02T09:07:04;23.30;;;13.27;;
14125;SDS011;7141;49.484;11.242;2023-02-02T09:09:31;19.40;;;13.00;;
14125;SDS011;7141;49.484;11.242;2023-02-02T09:11:57;10.87;;;6.73;;
14125;SDS011;7141;49.484;11.242;2023-02-02T09:14:23;4.50;;;3.20;;
14125;SDS011;7141;49.484;11.242;2023-02-02T09:16:49;7.23;;;3.53;;
14125;SDS011;7141;49.484;11.242;2023-02-02T09:19:15;5.10;;;3.70;;
14125;SDS011;7141;49.484;11.242;2023-02-02T09:21:41;4.73;;;3.30;;
14125;SDS011;7141;49.484;11.242;2023-02-02T09:24:08;5.33;;;3.40;;
14125;SDS011;7141;49.484;11.242;2023-02-02T09:26:35;5.80;;;3.33;;
14125;SDS011;7141;49.484;11.242;2023-02-02T09:29:03;3.97;;;3.37;;
14125;SDS011;7141;49.484;11.242;2023-02-02T09:31:31;8.93;;;5.13;;
14125;SDS011;7141;49.484;11.242;2023-02-02T09:34:00;5.30;;;3.37;;
14125;SDS011;7141;49.484;11.242;2023-02-02T09:36:27;4.23;;;3.00;;
14125;SDS011;7141;49.484;11.242;2023-02-02T09:38:53;3.47;;;2.97;;
14125;SDS011;7141;49.484;11.242;2023-02-02T09:41:26;4.90;;;2.93;;
14125;SDS011;7141;49.484;11.242;2023-02-02T09:44:02;4.17;;;2.60;;
14125;SDS011;7141;49.484;11.242;2023-02-02T09:49:19;10.53;;;4.43;;
14125;SDS011;7141;49.484;11.242;2023-02-02T09:51:48;6.90;;;3.43;;
14125;SDS011;7141;49.484;11.242;2023-02-02T09:54:36;3.00;;;2.30;;
14125;SDS011;7141;49.484;11.242;2023-02-02T09:57:09;5.70;;;2.47;;
14125;SDS011;7141;49.484;11.242;2023-02-02T09:59:38;3.90;;;2.93;;
14125;SDS011;7141;49.484;11.242;2023-02-02T10:02:16;3.63;;;2.57;;
14125;SDS011;7141;49.484;11.242;2023-02-02T10:04:43;3.37;;;2.43;;
14125;SDS011;7141;49.484;11.242;2023-02-02T10:07:14;3.43;;;2.60;;
14125;SDS011;7141;49.484;11.242;2023-02-02T10:09:56;3.30;;;2.10;;
14125;SDS011;7141;49.484;11.242;2023-02-02T10:12:34;2.77;;;2.10;;
14125;SDS011;7141;49.484;11.242;2023-02-02T10:15:18;4.23;;;2.50;;
14125;SDS011;7141;49.484;11.242;2023-02-02T10:22:39;5.23;;;4.60;;
14125;SDS011;7141;49.484;11.242;2023-02-02T10:25:07;6.37;;;5.00;;
14125;SDS011;7141;49.484;11.242;2023-02-02T10:27:37;5.80;;;4.43;;
14125;SDS011;7141;49.484;11.242;2023-02-02T10:30:07;9.90;;;6.60;;
14125;SDS011;7141;49.484;11.242;2023-02-02T10:32:40;5.97;;;4.77;;
14125;SDS011;7141;49.484;11.242;2023-02-02T10:44:58;4.80;;;3.47;;
14125;SDS011;7141;49.484;11.242;2023-02-02T10:47:26;6.00;;;3.73;;
14125;SDS011;7141;49.484;11.242;2023-02-02T10:50:09;4.23;;;2.70;;
14125;SDS011;7141;49.484;11.242;2023-02-02T10:52:54;3.70;;;3.10;;
14125;SDS011;7141;49.484;11.242;2023-02-02T10:55:27;3.70;;;2.83;;
14125;SDS011;7141;49.484;11.242;2023-02-02T10:58:07;3.80;;;2.87;;
14125;SDS011;7141;49.484;11.242;2023-02-02T11:00:39;4.07;;;2.47;;
14125;SDS011;7141;49.484;11.242;2023-02-02T11:03:07;4.53;;;2.63;;
14125;SDS011;7141;49.484;11.242;2023-02-02T11:05:34;5.17;;;3.40;;
14125;SDS011;7141;49.484;11.242;2023-02-02T11:08:20;3.83;;;3.20;;
14125;SDS011;7141;49.484;11.242;2023-02-02T11:10:49;5.63;;;3.67;;
14125;SDS011;7141;49.484;11.242;2023-02-02T11:13:24;4.83;;;3.50;;
14125;SDS011;7141;49.484;11.242;2023-02-02T11:16:07;4.00;;;3.10;;
14125;SDS011;7141;49.484;11.242;2023-02-02T11:18:37;3.87;;;2.90;;
14125;SDS011;7141;49.484;11.242;2023-02-02T11:21:04;3.80;;;3.00;;
14125;SDS011;7141;49.484;11.242;2023-02-02T11:23:40;4.20;;;2.83;;
14125;SDS011;7141;49.484;11.242;2023-02-02T11:26:06;8.27;;;5.63;;
14125;SDS011;7141;49.484;11.242;2023-02-02T11:28:33;8.87;;;4.93;;
14125;SDS011;7141;49.484;11.242;2023-02-02T11:31:00;6.03;;;4.03;;
14125;SDS011;7141;49.484;11.242;2023-02-02T11:33:30;6.53;;;3.73;;
14125;SDS011;7141;49.484;11.242;2023-02-02T11:36:00;5.60;;;4.13;;
14125;SDS011;7141;49.484;11.242;2023-02-02T11:38:27;6.03;;;3.50;;
14125;SDS011;7141;49.484;11.242;2023-02-02T11:40:58;4.07;;;3.40;;
14125;SDS011;7141;49.484;11.242;2023-02-02T11:43:29;5.73;;;3.03;;
14125;SDS011;7141;49.484;11.242;2023-02-02T11:46:03;5.83;;;3.03;;
14125;SDS011;7141;49.484;11.242;2023-02-02T11:48:30;5.93;;;2.87;;
14125;SDS011;7141;49.484;11.242;2023-02-02T11:50:57;5.33;;;3.20;;
14125;SDS011;7141;49.484;11.242;2023-02-02T11:56:26;4.87;;;3.30;;
14125;SDS011;7141;49.484;11.242;2023-02-02T11:58:55;6.70;;;4.43;;
14125;SDS011;7141;49.484;11.242;2023-02-02T12:01:30;9.93;;;7.47;;
14125;SDS011;7141;49.484;11.242;2023-02-02T12:03:58;7.23;;;3.93;;
14125;SDS011;7141;49.484;11.242;2023-02-02T12:08:52;13.33;;;9.33;;
14125;SDS011;7141;49.484;11.242;2023-02-02T12:11:24;5.53;;;3.60;;
14125;SDS011;7141;49.484;11.242;2023-02-02T12:14:03;7.83;;;3.80;;
14125;SDS011;7141;49.484;11.242;2023-02-02T12:35:08;5.83;;;2.60;;
14125;SDS011;7141;49.484;11.242;2023-02-02T12:42:46;7.53;;;3.20;;
14125;SDS011;7141;49.484;11.242;2023-02-02T12:58:00;4.53;;;2.20;;
14125;SDS011;7141;49.484;11.242;2023-02-02T13:00:33;11.03;;;3.20;;
14125;SDS011;7141;49.484;11.242;2023-02-02T13:10:48;8.27;;;2.87;;
14125;SDS011;7141;49.484;11.242;2023-02-02T13:13:17;8.07;;;2.77;;
14125;SDS011;7141;49.484;11.242;2023-02-02T13:15:48;8.43;;;2.87;;
14125;SDS011;7141;49.484;11.242;2023-02-02T13:18:26;7.27;;;3.10;;
14125;SDS011;7141;49.484;11.242;2023-02-02T13:20:54;8.80;;;3.07;;
14125;SDS011;7141;49.484;11.242;2023-02-02T13:23:22;9.00;;;2.70;;
14125;SDS011;7141;49.484;11.242;2023-02-02T13:25:51;6.27;;;2.73;;
14125;SDS011;7141;49.484;11.242;2023-02-02T13:29:01;7.90;;;2.90;;
14125;SDS011;7141;49.484;11.242;2023-02-02T13:31:13;7.10;;;2.97;;
14125;SDS011;7141;49.484;11.242;2023-02-02T13:33:41;8.03;;;3.13;;
14125;SDS011;7141;49.484;11.242;2023-02-02T13:36:13;9.37;;;4.77;;
14125;SDS011;7141;49.484;11.242;2023-02-02T13:38:40;10.67;;;6.70;;
14125;SDS011;7141;49.484;11.242;2023-02-02T13:41:07;9.37;;;6.40;;
14125;SDS011;7141;49.484;11.242;2023-02-02T13:43:38;12.20;;;7.20;;
14125;SDS011;7141;49.484;11.242;2023-02-02T13:54:24;9.27;;;6.87;;
14125;SDS011;7141;49.484;11.242;2023-02-02T14:01:41;8.93;;;5.93;;
14125;SDS011;7141;49.484;11.242;2023-02-02T14:04:17;10.30;;;5.90;;
14125;SDS011;7141;49.484;11.242;2023-02-02T14:07:05;8.23;;;5.80;;
14125;SDS011;7141;49.484;11.242;2023-02-02T14:09:33;13.07;;;5.70;;
14125;SDS011;7141;49.484;11.242;2023-02-02T14:12:00;7.13;;;4.20;;
14125;SDS011;7141;49.484;11.242;2023-02-02T14:14:27;6.03;;;4.50;;
14125;SDS011;7141;49.484;11.242;2023-02-02T14:16:59;7.70;;;4.63;;
14125;SDS011;7141;49.484;11.242;2023-02-02T14:24:48;10.43;;;6.53;;
14125;SDS011;7141;49.484;11.242;2023-02-02T14:34:57;7.37;;;4.90;;
14125;SDS011;7141;49.484;11.242;2023-02-02T14:42:28;36.93;;;16.27;;
14125;SDS011;7141;49.484;11.242;2023-02-02T14:45:21;26.87;;;13.10;;
14125;SDS011;7141;49.484;11.242;2023-02-02T14:47:49;15.47;;;8.80;;
14125;SDS011;7141;49.484;11.242;2023-02-02T14:50:21;13.13;;;7.63;;
14125;SDS011;7141;49.484;11.242;2023-02-02T14:53:02;8.10;;;5.63;;
14125;SDS011;7141;49.484;11.242;2023-02-02T14:55:29;8.50;;;6.40;;
14125;SDS011;7141;49.484;11.242;2023-02-02T14:57:56;9.23;;;6.27;;
14125;SDS011;7141;49.484;11.242;2023-02-02T15:00:24;7.20;;;5.00;;
14125;SDS011;7141;49.484;11.242;2023-02-02T15:02:50;9.93;;;6.40;;
14125;SDS011;7141;49.484;11.242;2023-02-02T15:13:18;9.00;;;6.10;;
14125;SDS011;7141;49.484;11.242;2023-02-02T15:15:45;11.70;;;7.30;;
14125;SDS011;7141;49.484;11.242;2023-02-02T15:18:17;19.63;;;11.97;;
14125;SDS011;7141;49.484;11.242;2023-02-02T15:20:47;16.33;;;10.53;;
14125;SDS011;7141;49.484;11.242;2023-02-02T15:23:33;28.63;;;17.20;;
14125;SDS011;7141;49.484;11.242;2023-02-02T15:26:02;23.50;;;13.63;;
14125;SDS011;7141;49.484;11.242;2023-02-02T15:28:50;20.50;;;13.67;;
14125;SDS011;7141;49.484;11.242;2023-02-02T15:34:39;59.17;;;33.13;;
14125;SDS011;7141;49.484;11.242;2023-02-02T15:36:46;23.10;;;14.47;;
14125;SDS011;7141;49.484;11.242;2023-02-02T15:39:29;46.50;;;25.07;;
14125;SDS011;7141;49.484;11.242;2023-02-02T15:41:56;20.60;;;12.07;;
14125;SDS011;7141;49.484;11.242;2023-02-02T15:44:42;33.67;;;19.37;;
14125;SDS011;7141;49.484;11.242;2023-02-02T15:47:16;40.03;;;30.07;;
14125;SDS011;7141;49.484;11.242;2023-02-02T15:49:43;8.40;;;5.73;;
14125;SDS011;7141;49.484;11.242;2023-02-02T15:52:14;11.67;;;7.40;;
14125;SDS011;7141;49.484;11.242;2023-02-02T15:54:51;14.50;;;9.27;;
14125;SDS011;7141;49.484;11.242;2023-02-02T15:57:50;15.27;;;8.57;;
14125;SDS011;7141;49.484;11.242;2023-02-02T16:03:16;14.93;;;8.57;;
14125;SDS011;7141;49.484;11.242;2023-02-02T16:06:02;11.43;;;6.47;;
14125;SDS011;7141;49.484;11.242;2023-02-02T16:08:29;9.83;;;6.27;;
14125;SDS011;7141;49.484;11.242;2023-02-02T16:11:09;9.57;;;6.03;;
14125;SDS011;7141;49.484;11.242;2023-02-02T16:13:35;7.30;;;5.17;;
14125;SDS011;7141;49.484;11.242;2023-02-02T16:16:03;9.50;;;6.00;;
14125;SDS011;7141;49.484;11.242;2023-02-02T16:18:30;8.93;;;5.67;;
14125;SDS011;7141;49.484;11.242;2023-02-02T16:20:57;7.13;;;5.33;;
14125;SDS011;7141;49.484;11.242;2023-02-02T16:23:32;12.63;;;6.77;;
14125;SDS011;7141;49.484;11.242;2023-02-02T16:25:59;10.97;;;6.60;;
14125;SDS011;7141;49.484;11.242;2023-02-02T16:28:27;12.37;;;8.47;;
14125;SDS011;7141;49.484;11.242;2023-02-02T16:30:53;8.60;;;5.77;;
14125;SDS011;7141;49.484;11.242;2023-02-02T16:35:52;24.03;;;12.30;;
14125;SDS011;7141;49.484;11.242;2023-02-02T16:41:00;16.97;;;11.70;;
14125;SDS011;7141;49.484;11.242;2023-02-02T16:43:26;17.17;;;9.63;;
14125;SDS011;7141;49.484;11.242;2023-02-02T16:48:26;28.30;;;15.97;;
14125;SDS011;7141;49.484;11.242;2023-02-02T16:51:12;28.90;;;16.00;;
14125;SDS011;7141;49.484;11.242;2023-02-02T16:56:20;16.03;;;9.87;;
14125;SDS011;7141;49.484;11.242;2023-02-02T16:58:48;16.70;;;11.07;;
14125;SDS011;7141;49.484;11.242;2023-02-02T17:01:15;20.63;;;11.87;;
14125;SDS011;7141;49.484;11.242;2023-02-02T17:03:46;41.60;;;21.87;;
14125;SDS011;7141;49.484;11.242;2023-02-02T17:06:14;26.17;;;16.73;;
14125;SDS011;7141;49.484;11.242;2023-02-02T17:08:40;24.03;;;15.23;;
14125;SDS011;7141;49.484;11.242;2023-02-02T17:11:17;23.43;;;15.67;;
14125;SDS011;7141;49.484;11.242;2023-02-02T17:13:44;24.67;;;15.27;;
14125;SDS011;7141;49.484;11.242;2023-02-02T17:16:14;26.07;;;15.93;;